sensor_id;sensor_type;location;lat;lon;timestamp;temperature;humidity
29363;DHT22;16349;53.672;10.014;2023-08-17T00:02:17;17.40;99.90
29363;DHT22;16349;53.672;10.014;2023-08-17T00:04:44;17.40;99.90
29363;DHT22;16349;53.672;10.014;2023-08-17T00:07:12;17.30;99.90
29363;DHT22;16349;53.672;10.014;2023-08-17T00:09:39;17.30;99.90
29363;DHT22;16349;53.672;10.014;2023-08-17T00:12:06;17.30;99.90
29363;DHT22;16349;53.672;10.014;2023-08-17T00:14:33;17.30;99.90
29363;DHT22;16349;53.672;10.014;2023-08-17T00:17:00;17.30;99.90
29363;DHT22;16349;53.672;10.014;2023-08-17T00:19:27;17.30;99.90
29363;DHT22;16349;53.672;10.014;2023-08-17T00:21:54;17.30;99.90
29363;DHT22;16349;53.672;10.014;2023-08-17T00:24:22;17.20;99.90
29363;DHT22;16349;53.672;10.014;2023-08-17T00:26:49;17.20;99.90
29363;DHT22;16349;53.672;10.014;2023-08-17T00:29:16;17.20;99.90
29363;DHT22;16349;53.672;10.014;2023-08-17T00:31:43;17.20;99.90
29363;DHT22;16349;53.672;10.014;2023-08-17T00:34:09;17.20;99.90
29363;DHT22;16349;53.672;10.014;2023-08-17T00:36:36;17.10;99.90
29363;DHT22;16349;53.672;10.014;2023-08-17T00:39:03;17.10;99.90
29363;DHT22;16349;53.672;10.014;2023-08-17T00:41:31;17.10;99.90
29363;DHT22;16349;53.672;10.014;2023-08-17T00:43:59;17.10;99.90
29363;DHT22;16349;53.672;10.014;2023-08-17T00:46:26;17.00;99.90
29363;DHT22;16349;53.672;10.014;2023-08-17T00:48:54;17.00;99.90
29363;DHT22;16349;53.672;10.014;2023-08-17T00:51:22;17.00;99.90
29363;DHT22;16349;53.672;10.014;2023-08-17T00:53:50;17.00;99.90
29363;DHT22;16349;53.672;10.014;2023-08-17T00:56:17;17.00;99.90
29363;DHT22;16349;53.672;10.014;2023-08-17T00:58:45;17.00;99.90
29363;DHT22;16349;53.672;10.014;2023-08-17T01:01:12;17.00;99.90
29363;DHT22;16349;53.672;10.014;2023-08-17T01:03:40;16.90;99.90
29363;DHT22;16349;53.672;10.014;2023-08-17T01:06:07;16.90;99.90
29363;DHT22;16349;53.672;10.014;2023-08-17T01:08:35;16.90;99.90
29363;DHT22;16349;53.672;10.014;2023-08-17T01:11:08;16.90;99.90
29363;DHT22;16349;53.672;10.014;2023-08-17T01:13:47;16.90;99.90
29363;DHT22;16349;53.672;10.014;2023-08-17T01:16:20;16.90;99.90
29363;DHT22;16349;53.672;10.014;2023-08-17T01:18:50;16.90;99.90
29363;DHT22;16349;53.672;10.014;2023-08-17T01:21:21;16.80;99.90
29363;DHT22;16349;53.672;10.014;2023-08-17T01:23:51;16.80;99.90
29363;DHT22;16349;53.672;10.014;2023-08-17T01:26:18;16.80;99.90
29363;DHT22;16349;53.672;10.014;2023-08-17T01:28:46;16.70;99.90
29363;DHT22;16349;53.672;10.014;2023-08-17T01:31:20;16.60;99.90
29363;DHT22;16349;53.672;10.014;2023-08-17T01:33:52;16.60;99.90
29363;DHT22;16349;53.672;10.014;2023-08-17T01:36:25;16.60;99.90
29363;DHT22;16349;53.672;10.014;2023-08-17T01:38:56;16.70;99.90
29363;DHT22;16349;53.672;10.014;2023-08-17T01:41:23;16.70;99.90
29363;DHT22;16349;53.672;10.014;2023-08-17T01:43:52;16.70;99.90
29363;DHT22;16349;53.672;10.014;2023-08-17T01:46:21;16.80;99.90
29363;DHT22;16349;53.672;10.014;2023-08-17T01:48:48;16.80;99.90
29363;DHT22;16349;53.672;10.014;2023-08-17T01:51:18;16.70;99.90
29363;DHT22;16349;53.672;10.014;2023-08-17T01:53:46;16.70;99.90
29363;DHT22;16349;53.672;10.014;2023-08-17T01:56:14;16.80;99.90
29363;DHT22;16349;53.672;10.014;2023-08-17T01:58:41;16.80;99.90
29363;DHT22;16349;53.672;10.014;2023-08-17T02:01:08;16.80;99.90
29363;DHT22;16349;53.672;10.014;2023-08-17T02:03:35;16.70;99.90
29363;DHT22;16349;53.672;10.014;2023-08-17T02:06:02;16.70;99.90
29363;DHT22;16349;53.672;10.014;2023-08-17T02:08:29;16.70;99.90
29363;DHT22;16349;53.672;10.014;2023-08-17T02:10:56;16.70;99.90
29363;DHT22;16349;53.672;10.014;2023-08-17T02:13:24;16.70;99.90
29363;DHT22;16349;53.672;10.014;2023-08-17T02:15:53;16.70;99.90
29363;DHT22;16349;53.672;10.014;2023-08-17T02:18:19;16.70;99.90
29363;DHT22;16349;53.672;10.014;2023-08-17T02:20:46;16.70;99.90
29363;DHT22;16349;53.672;10.014;2023-08-17T02:23:13;16.70;99.90
29363;DHT22;16349;53.672;10.014;2023-08-17T02:25:40;16.70;99.90
29363;DHT22;16349;53.672;10.014;2023-08-17T02:28:07;16.70;99.90
29363;DHT22;16349;53.672;10.014;2023-08-17T02:30:35;16.70;99.90
29363;DHT22;16349;53.672;10.014;2023-08-17T02:33:02;16.60;99.90
29363;DHT22;16349;53.672;10.014;2023-08-17T02:35:29;16.70;99.90
29363;DHT22;16349;53.672;10.014;2023-08-17T02:37:57;16.70;99.90
29363;DHT22;16349;53.672;10.014;2023-08-17T02:40:24;16.70;99.90
29363;DHT22;16349;53.672;10.014;2023-08-17T02:42:50;16.70;99.90
29363;DHT22;16349;53.672;10.014;2023-08-17T02:45:17;16.70;99.90
29363;DHT22;16349;53.672;10.014;2023-08-17T02:47:45;16.70;99.90
29363;DHT22;16349;53.672;10.014;2023-08-17T02:50:14;16.70;99.90
29363;DHT22;16349;53.672;10.014;2023-08-17T02:52:42;16.60;99.90
29363;DHT22;16349;53.672;10.014;2023-08-17T02:55:09;16.70;99.90
29363;DHT22;16349;53.672;10.014;2023-08-17T02:57:36;16.70;99.90
29363;DHT22;16349;53.672;10.014;2023-08-17T03:00:04;16.70;99.90
29363;DHT22;16349;53.672;10.014;2023-08-17T03:02:32;16.70;99.90
29363;DHT22;16349;53.672;10.014;2023-08-17T03:05:03;16.70;99.90
29363;DHT22;16349;53.672;10.014;2023-08-17T03:07:30;16.60;99.90
29363;DHT22;16349;53.672;10.014;2023-08-17T03:09:56;16.60;99.90
29363;DHT22;16349;53.672;10.014;2023-08-17T03:12:23;16.60;99.90
29363;DHT22;16349;53.672;10.014;2023-08-17T03:14:50;16.60;99.90
29363;DHT22;16349;53.672;10.014;2023-08-17T03:17:17;16.70;99.90
29363;DHT22;16349;53.672;10.014;2023-08-17T03:19:44;16.70;99.90
29363;DHT22;16349;53.672;10.014;2023-08-17T03:22:12;16.60;99.90
29363;DHT22;16349;53.672;10.014;2023-08-17T03:24:39;16.70;99.90
29363;DHT22;16349;53.672;10.014;2023-08-17T03:27:06;16.60;99.90
29363;DHT22;16349;53.672;10.014;2023-08-17T03:29:33;16.60;99.90
29363;DHT22;16349;53.672;10.014;2023-08-17T03:32:00;16.60;99.90
29363;DHT22;16349;53.672;10.014;2023-08-17T03:34:28;16.60;99.90
29363;DHT22;16349;53.672;10.014;2023-08-17T03:36:54;16.50;99.90
29363;DHT22;16349;53.672;10.014;2023-08-17T03:39:23;16.60;99.90
29363;DHT22;16349;53.672;10.014;2023-08-17T03:41:49;16.60;99.90
29363;DHT22;16349;53.672;10.014;2023-08-17T03:44:17;16.60;99.90
29363;DHT22;16349;53.672;10.014;2023-08-17T03:46:43;16.60;99.90
29363;DHT22;16349;53.672;10.014;2023-08-17T03:49:10;16.60;99.90
29363;DHT22;16349;53.672;10.014;2023-08-17T03:51:37;16.60;99.90
29363;DHT22;16349;53.672;10.014;2023-08-17T03:54:04;16.70;99.90
29363;DHT22;16349;53.672;10.014;2023-08-17T03:56:32;16.70;99.90
29363;DHT22;16349;53.672;10.014;2023-08-17T03:58:59;16.60;99.90
29363;DHT22;16349;53.672;10.014;2023-08-17T04:01:26;16.70;99.90
29363;DHT22;16349;53.672;10.014;2023-08-17T04:03:53;16.70;99.90
29363;DHT22;16349;53.672;10.014;2023-08-17T04:06:20;16.70;99.90
29363;DHT22;16349;53.672;10.014;2023-08-17T04:08:48;16.70;99.90
29363;DHT22;16349;53.672;10.014;2023-08-17T04:11:15;16.70;99.90
29363;DHT22;16349;53.672;10.014;2023-08-17T04:13:43;16.70;99.90
29363;DHT22;16349;53.672;10.014;2023-08-17T04:16:10;16.80;99.90
29363;DHT22;16349;53.672;10.014;2023-08-17T04:18:37;16.80;99.90
29363;DHT22;16349;53.672;10.014;2023-08-17T04:21:04;16.70;99.90
29363;DHT22;16349;53.672;10.014;2023-08-17T04:23:31;16.80;99.90
29363;DHT22;16349;53.672;10.014;2023-08-17T04:25:58;16.70;99.90
29363;DHT22;16349;53.672;10.014;2023-08-17T04:28:27;16.80;99.90
29363;DHT22;16349;53.672;10.014;2023-08-17T04:30:55;16.80;99.90
29363;DHT22;16349;53.672;10.014;2023-08-17T04:33:23;16.80;99.90
29363;DHT22;16349;53.672;10.014;2023-08-17T04:35:49;16.80;99.90
29363;DHT22;16349;53.672;10.014;2023-08-17T04:38:16;16.80;99.90
29363;DHT22;16349;53.672;10.014;2023-08-17T04:40:44;16.90;99.90
29363;DHT22;16349;53.672;10.014;2023-08-17T04:43:11;16.90;99.90
29363;DHT22;16349;53.672;10.014;2023-08-17T04:45:38;16.80;99.90
29363;DHT22;16349;53.672;10.014;2023-08-17T04:48:07;16.90;99.90
29363;DHT22;16349;53.672;10.014;2023-08-17T04:50:34;16.90;99.90
29363;DHT22;16349;53.672;10.014;2023-08-17T04:53:02;16.90;99.90
29363;DHT22;16349;53.672;10.014;2023-08-17T04:55:29;16.90;99.90
29363;DHT22;16349;53.672;10.014;2023-08-17T04:57:57;16.90;99.90
29363;DHT22;16349;53.672;10.014;2023-08-17T05:00:24;16.90;99.90
29363;DHT22;16349;53.672;10.014;2023-08-17T05:02:54;16.90;99.90
29363;DHT22;16349;53.672;10.014;2023-08-17T05:05:25;16.90;99.90
29363;DHT22;16349;53.672;10.014;2023-08-17T05:07:53;17.00;99.90
29363;DHT22;16349;53.672;10.014;2023-08-17T05:10:20;17.00;99.90
29363;DHT22;16349;53.672;10.014;2023-08-17T05:12:47;17.10;99.90
29363;DHT22;16349;53.672;10.014;2023-08-17T05:15:14;17.10;99.90
29363;DHT22;16349;53.672;10.014;2023-08-17T05:17:41;17.10;99.90
29363;DHT22;16349;53.672;10.014;2023-08-17T05:20:11;17.10;99.90
29363;DHT22;16349;53.672;10.014;2023-08-17T05:22:40;17.10;99.90
29363;DHT22;16349;53.672;10.014;2023-08-17T05:25:08;17.10;99.90
29363;DHT22;16349;53.672;10.014;2023-08-17T05:27:37;17.10;99.90
29363;DHT22;16349;53.672;10.014;2023-08-17T05:30:05;17.10;99.90
29363;DHT22;16349;53.672;10.014;2023-08-17T05:32:32;17.00;99.90
29363;DHT22;16349;53.672;10.014;2023-08-17T05:34:59;17.00;99.90
29363;DHT22;16349;53.672;10.014;2023-08-17T05:37:26;17.00;99.90
29363;DHT22;16349;53.672;10.014;2023-08-17T05:39:54;16.90;99.90
29363;DHT22;16349;53.672;10.014;2023-08-17T05:42:21;17.00;99.90
29363;DHT22;16349;53.672;10.014;2023-08-17T05:44:47;16.90;99.90
29363;DHT22;16349;53.672;10.014;2023-08-17T05:47:14;16.90;99.90
29363;DHT22;16349;53.672;10.014;2023-08-17T05:49:44;16.90;99.90
29363;DHT22;16349;53.672;10.014;2023-08-17T05:52:12;16.90;99.90
29363;DHT22;16349;53.672;10.014;2023-08-17T05:54:39;16.90;99.90
29363;DHT22;16349;53.672;10.014;2023-08-17T05:57:07;16.80;99.90
29363;DHT22;16349;53.672;10.014;2023-08-17T05:59:34;16.80;99.90
29363;DHT22;16349;53.672;10.014;2023-08-17T06:02:00;16.80;99.90
29363;DHT22;16349;53.672;10.014;2023-08-17T06:04:27;16.80;99.90
29363;DHT22;16349;53.672;10.014;2023-08-17T06:06:55;16.80;99.90
29363;DHT22;16349;53.672;10.014;2023-08-17T06:09:21;16.70;99.90
29363;DHT22;16349;53.672;10.014;2023-08-17T06:11:48;16.70;99.90
29363;DHT22;16349;53.672;10.014;2023-08-17T06:14:16;16.70;99.90
29363;DHT22;16349;53.672;10.014;2023-08-17T06:16:43;16.70;99.90
29363;DHT22;16349;53.672;10.014;2023-08-17T06:19:10;16.60;99.90
29363;DHT22;16349;53.672;10.014;2023-08-17T06:21:37;16.60;99.90
29363;DHT22;16349;53.672;10.014;2023-08-17T06:24:04;16.60;99.90
29363;DHT22;16349;53.672;10.014;2023-08-17T06:26:31;16.60;99.90
29363;DHT22;16349;53.672;10.014;2023-08-17T06:28:58;16.60;99.90
29363;DHT22;16349;53.672;10.014;2023-08-17T06:31:26;16.70;99.90
29363;DHT22;16349;53.672;10.014;2023-08-17T06:33:53;16.70;99.90
29363;DHT22;16349;53.672;10.014;2023-08-17T06:36:20;16.60;99.90
29363;DHT22;16349;53.672;10.014;2023-08-17T06:38:47;16.60;99.90
29363;DHT22;16349;53.672;10.014;2023-08-17T06:41:14;16.60;99.90
29363;DHT22;16349;53.672;10.014;2023-08-17T06:43:40;16.60;99.90
29363;DHT22;16349;53.672;10.014;2023-08-17T06:46:07;16.60;99.90
29363;DHT22;16349;53.672;10.014;2023-08-17T06:48:35;16.60;99.90
29363;DHT22;16349;53.672;10.014;2023-08-17T06:51:02;16.60;99.90
29363;DHT22;16349;53.672;10.014;2023-08-17T06:53:30;16.60;99.90
29363;DHT22;16349;53.672;10.014;2023-08-17T06:55:57;16.60;99.90
29363;DHT22;16349;53.672;10.014;2023-08-17T06:58:24;16.50;99.90
29363;DHT22;16349;53.672;10.014;2023-08-17T07:00:51;16.50;99.90
29363;DHT22;16349;53.672;10.014;2023-08-17T07:03:18;16.50;99.90
29363;DHT22;16349;53.672;10.014;2023-08-17T07:05:47;16.50;99.90
29363;DHT22;16349;53.672;10.014;2023-08-17T07:08:14;16.50;99.90
29363;DHT22;16349;53.672;10.014;2023-08-17T07:10:40;16.50;99.90
29363;DHT22;16349;53.672;10.014;2023-08-17T07:13:07;16.50;99.90
29363;DHT22;16349;53.672;10.014;2023-08-17T07:15:34;16.60;99.90
29363;DHT22;16349;53.672;10.014;2023-08-17T07:18:01;16.60;99.90
29363;DHT22;16349;53.672;10.014;2023-08-17T07:20:28;16.60;99.90
29363;DHT22;16349;53.672;10.014;2023-08-17T07:22:56;16.60;99.90
29363;DHT22;16349;53.672;10.014;2023-08-17T07:25:23;16.60;99.90
29363;DHT22;16349;53.672;10.014;2023-08-17T07:27:50;16.60;99.90
29363;DHT22;16349;53.672;10.014;2023-08-17T07:30:17;16.60;99.90
29363;DHT22;16349;53.672;10.014;2023-08-17T07:32:43;16.60;99.90
29363;DHT22;16349;53.672;10.014;2023-08-17T07:35:10;16.60;99.90
29363;DHT22;16349;53.672;10.014;2023-08-17T07:37:37;16.60;99.90
29363;DHT22;16349;53.672;10.014;2023-08-17T07:40:07;16.60;99.90
29363;DHT22;16349;53.672;10.014;2023-08-17T07:42:34;16.60;99.90
29363;DHT22;16349;53.672;10.014;2023-08-17T07:45:02;16.60;99.90
29363;DHT22;16349;53.672;10.014;2023-08-17T07:47:31;16.60;99.90
29363;DHT22;16349;53.672;10.014;2023-08-17T07:49:58;16.60;99.90
29363;DHT22;16349;53.672;10.014;2023-08-17T07:52:24;16.70;99.90
29363;DHT22;16349;53.672;10.014;2023-08-17T07:54:51;16.70;99.90
29363;DHT22;16349;53.672;10.014;2023-08-17T07:57:19;16.70;99.90
29363;DHT22;16349;53.672;10.014;2023-08-17T07:59:46;16.70;99.90
29363;DHT22;16349;53.672;10.014;2023-08-17T08:02:13;16.80;99.90
29363;DHT22;16349;53.672;10.014;2023-08-17T08:04:40;16.80;99.90
29363;DHT22;16349;53.672;10.014;2023-08-17T08:07:07;16.80;99.90
29363;DHT22;16349;53.672;10.014;2023-08-17T08:09:33;16.80;99.90
29363;DHT22;16349;53.672;10.014;2023-08-17T08:12:00;16.80;99.90
29363;DHT22;16349;53.672;10.014;2023-08-17T08:14:29;16.90;99.90
29363;DHT22;16349;53.672;10.014;2023-08-17T08:16:56;16.80;99.90
29363;DHT22;16349;53.672;10.014;2023-08-17T08:19:23;16.90;99.90
29363;DHT22;16349;53.672;10.014;2023-08-17T08:21:50;16.90;99.90
29363;DHT22;16349;53.672;10.014;2023-08-17T08:24:17;16.90;99.90
29363;DHT22;16349;53.672;10.014;2023-08-17T08:26:44;17.00;99.90
29363;DHT22;16349;53.672;10.014;2023-08-17T08:29:11;17.00;99.90
29363;DHT22;16349;53.672;10.014;2023-08-17T08:31:39;17.00;99.90
29363;DHT22;16349;53.672;10.014;2023-08-17T08:34:06;17.00;99.90
29363;DHT22;16349;53.672;10.014;2023-08-17T08:36:32;17.00;99.90
29363;DHT22;16349;53.672;10.014;2023-08-17T08:38:59;17.10;99.90
29363;DHT22;16349;53.672;10.014;2023-08-17T08:41:26;17.10;99.90
29363;DHT22;16349;53.672;10.014;2023-08-17T08:43:54;17.10;99.90
29363;DHT22;16349;53.672;10.014;2023-08-17T08:46:22;17.10;99.90
29363;DHT22;16349;53.672;10.014;2023-08-17T08:48:52;17.10;99.90
29363;DHT22;16349;53.672;10.014;2023-08-17T08:51:25;17.00;99.90
29363;DHT22;16349;53.672;10.014;2023-08-17T08:54:00;17.00;99.90
29363;DHT22;16349;53.672;10.014;2023-08-17T08:56:31;17.10;99.90
29363;DHT22;16349;53.672;10.014;2023-08-17T08:58:59;17.10;99.90
29363;DHT22;16349;53.672;10.014;2023-08-17T09:01:28;17.10;99.90
29363;DHT22;16349;53.672;10.014;2023-08-17T09:03:58;17.20;99.90
29363;DHT22;16349;53.672;10.014;2023-08-17T09:06:26;17.20;99.90
29363;DHT22;16349;53.672;10.014;2023-08-17T09:08:54;17.20;99.90
29363;DHT22;16349;53.672;10.014;2023-08-17T09:11:20;17.20;99.90
29363;DHT22;16349;53.672;10.014;2023-08-17T09:13:48;17.30;99.90
29363;DHT22;16349;53.672;10.014;2023-08-17T09:16:15;17.20;99.90
29363;DHT22;16349;53.672;10.014;2023-08-17T09:18:42;17.20;99.90
29363;DHT22;16349;53.672;10.014;2023-08-17T09:21:20;17.20;99.90
29363;DHT22;16349;53.672;10.014;2023-08-17T09:23:50;17.30;99.90
29363;DHT22;16349;53.672;10.014;2023-08-17T09:26:19;17.30;99.90
29363;DHT22;16349;53.672;10.014;2023-08-17T09:28:47;17.30;99.90
29363;DHT22;16349;53.672;10.014;2023-08-17T09:31:14;17.20;99.90
29363;DHT22;16349;53.672;10.014;2023-08-17T09:33:41;17.30;99.90
29363;DHT22;16349;53.672;10.014;2023-08-17T09:36:11;17.30;99.90
29363;DHT22;16349;53.672;10.014;2023-08-17T09:38:38;17.30;99.90
29363;DHT22;16349;53.672;10.014;2023-08-17T09:41:05;17.30;99.90
29363;DHT22;16349;53.672;10.014;2023-08-17T09:43:32;17.30;99.90
29363;DHT22;16349;53.672;10.014;2023-08-17T09:46:00;17.30;99.90
29363;DHT22;16349;53.672;10.014;2023-08-17T09:48:28;17.40;99.90
29363;DHT22;16349;53.672;10.014;2023-08-17T09:50:56;17.40;99.90
29363;DHT22;16349;53.672;10.014;2023-08-17T09:53:25;17.50;99.90
29363;DHT22;16349;53.672;10.014;2023-08-17T09:55:53;17.50;99.90
29363;DHT22;16349;53.672;10.014;2023-08-17T09:58:21;17.40;99.90
29363;DHT22;16349;53.672;10.014;2023-08-17T10:00:49;17.30;99.90
29363;DHT22;16349;53.672;10.014;2023-08-17T10:03:17;17.20;99.90
29363;DHT22;16349;53.672;10.014;2023-08-17T10:05:48;17.30;99.90
29363;DHT22;16349;53.672;10.014;2023-08-17T10:08:19;17.30;99.90
29363;DHT22;16349;53.672;10.014;2023-08-17T10:10:49;17.20;99.90
29363;DHT22;16349;53.672;10.014;2023-08-17T10:13:21;17.20;99.90
29363;DHT22;16349;53.672;10.014;2023-08-17T10:16:03;17.20;99.90
29363;DHT22;16349;53.672;10.014;2023-08-17T10:18:45;17.20;99.90
29363;DHT22;16349;53.672;10.014;2023-08-17T10:21:23;17.10;99.90
29363;DHT22;16349;53.672;10.014;2023-08-17T10:23:53;17.10;99.90
29363;DHT22;16349;53.672;10.014;2023-08-17T10:26:22;17.10;99.90
29363;DHT22;16349;53.672;10.014;2023-08-17T10:28:49;17.10;99.90
29363;DHT22;16349;53.672;10.014;2023-08-17T10:31:17;17.20;99.90
29363;DHT22;16349;53.672;10.014;2023-08-17T10:33:44;17.20;99.90
29363;DHT22;16349;53.672;10.014;2023-08-17T10:36:13;17.20;99.90
29363;DHT22;16349;53.672;10.014;2023-08-17T10:38:40;17.20;99.90
29363;DHT22;16349;53.672;10.014;2023-08-17T10:41:08;17.20;99.90
29363;DHT22;16349;53.672;10.014;2023-08-17T10:43:56;17.20;99.90
29363;DHT22;16349;53.672;10.014;2023-08-17T10:46:32;17.20;99.90
29363;DHT22;16349;53.672;10.014;2023-08-17T10:49:02;17.20;99.90
29363;DHT22;16349;53.672;10.014;2023-08-17T10:51:30;17.20;99.90
29363;DHT22;16349;53.672;10.014;2023-08-17T10:53:58;17.10;99.90
29363;DHT22;16349;53.672;10.014;2023-08-17T10:56:27;17.10;99.90
29363;DHT22;16349;53.672;10.014;2023-08-17T10:58:55;17.10;99.90
29363;DHT22;16349;53.672;10.014;2023-08-17T11:01:32;17.10;99.90
29363;DHT22;16349;53.672;10.014;2023-08-17T11:04:15;17.10;99.90
29363;DHT22;16349;53.672;10.014;2023-08-17T11:06:42;17.10;99.90
29363;DHT22;16349;53.672;10.014;2023-08-17T11:09:09;17.20;99.90
29363;DHT22;16349;53.672;10.014;2023-08-17T11:11:37;17.20;99.90
29363;DHT22;16349;53.672;10.014;2023-08-17T11:14:05;17.30;99.90
29363;DHT22;16349;53.672;10.014;2023-08-17T11:16:32;17.30;99.90
29363;DHT22;16349;53.672;10.014;2023-08-17T11:19:00;17.40;99.90
29363;DHT22;16349;53.672;10.014;2023-08-17T11:21:27;17.50;99.90
29363;DHT22;16349;53.672;10.014;2023-08-17T11:23:56;17.60;99.90
29363;DHT22;16349;53.672;10.014;2023-08-17T11:26:23;17.60;99.90
29363;DHT22;16349;53.672;10.014;2023-08-17T11:28:51;17.60;99.90
29363;DHT22;16349;53.672;10.014;2023-08-17T11:31:19;17.60;99.90
29363;DHT22;16349;53.672;10.014;2023-08-17T11:33:46;17.70;99.90
29363;DHT22;16349;53.672;10.014;2023-08-17T11:36:13;17.60;99.90
29363;DHT22;16349;53.672;10.014;2023-08-17T11:38:43;17.60;99.90
29363;DHT22;16349;53.672;10.014;2023-08-17T11:41:10;17.60;99.90
29363;DHT22;16349;53.672;10.014;2023-08-17T11:43:37;17.60;99.90
29363;DHT22;16349;53.672;10.014;2023-08-17T11:46:04;17.60;99.90
29363;DHT22;16349;53.672;10.014;2023-08-17T11:48:33;17.50;99.90
29363;DHT22;16349;53.672;10.014;2023-08-17T11:51:00;17.50;99.90
29363;DHT22;16349;53.672;10.014;2023-08-17T11:53:33;17.50;99.90
29363;DHT22;16349;53.672;10.014;2023-08-17T11:56:00;17.40;99.90
29363;DHT22;16349;53.672;10.014;2023-08-17T11:58:39;17.30;99.90
29363;DHT22;16349;53.672;10.014;2023-08-17T12:01:09;17.30;99.90
29363;DHT22;16349;53.672;10.014;2023-08-17T12:03:38;17.20;99.90
29363;DHT22;16349;53.672;10.014;2023-08-17T12:06:05;17.10;99.90
29363;DHT22;16349;53.672;10.014;2023-08-17T12:08:32;17.20;99.90
29363;DHT22;16349;53.672;10.014;2023-08-17T12:11:00;17.20;99.90
29363;DHT22;16349;53.672;10.014;2023-08-17T12:13:32;17.30;99.90
29363;DHT22;16349;53.672;10.014;2023-08-17T12:15:58;17.30;99.90
29363;DHT22;16349;53.672;10.014;2023-08-17T12:18:25;17.30;99.90
29363;DHT22;16349;53.672;10.014;2023-08-17T12:20:54;17.40;99.90
29363;DHT22;16349;53.672;10.014;2023-08-17T12:23:21;17.40;99.90
29363;DHT22;16349;53.672;10.014;2023-08-17T12:25:52;17.40;99.90
29363;DHT22;16349;53.672;10.014;2023-08-17T12:28:19;17.40;99.90
29363;DHT22;16349;53.672;10.014;2023-08-17T12:30:46;17.50;99.90
29363;DHT22;16349;53.672;10.014;2023-08-17T12:33:13;17.50;99.90
29363;DHT22;16349;53.672;10.014;2023-08-17T12:35:40;17.40;99.90
29363;DHT22;16349;53.672;10.014;2023-08-17T12:38:08;17.40;99.90
29363;DHT22;16349;53.672;10.014;2023-08-17T12:40:35;17.40;99.90
29363;DHT22;16349;53.672;10.014;2023-08-17T12:43:02;17.30;99.90
29363;DHT22;16349;53.672;10.014;2023-08-17T12:45:28;17.30;99.90
29363;DHT22;16349;53.672;10.014;2023-08-17T12:47:56;17.30;99.90
29363;DHT22;16349;53.672;10.014;2023-08-17T12:50:23;17.30;99.90
29363;DHT22;16349;53.672;10.014;2023-08-17T12:52:50;17.40;99.90
29363;DHT22;16349;53.672;10.014;2023-08-17T12:55:18;17.50;99.90
29363;DHT22;16349;53.672;10.014;2023-08-17T12:57:45;17.60;99.90
29363;DHT22;16349;53.672;10.014;2023-08-17T13:00:12;17.60;99.90
29363;DHT22;16349;53.672;10.014;2023-08-17T13:02:39;17.70;99.90
29363;DHT22;16349;53.672;10.014;2023-08-17T13:05:06;17.70;99.90
29363;DHT22;16349;53.672;10.014;2023-08-17T13:07:33;17.80;99.90
29363;DHT22;16349;53.672;10.014;2023-08-17T13:10:00;17.80;99.90
29363;DHT22;16349;53.672;10.014;2023-08-17T13:12:28;17.90;99.90
29363;DHT22;16349;53.672;10.014;2023-08-17T13:14:55;17.90;99.90
29363;DHT22;16349;53.672;10.014;2023-08-17T13:17:22;17.90;99.90
29363;DHT22;16349;53.672;10.014;2023-08-17T13:19:48;17.90;99.90
29363;DHT22;16349;53.672;10.014;2023-08-17T13:22:15;17.90;99.90
29363;DHT22;16349;53.672;10.014;2023-08-17T13:24:42;17.90;99.90
29363;DHT22;16349;53.672;10.014;2023-08-17T13:27:09;18.00;99.90
29363;DHT22;16349;53.672;10.014;2023-08-17T13:29:37;17.90;99.90
29363;DHT22;16349;53.672;10.014;2023-08-17T13:32:04;18.00;99.90
29363;DHT22;16349;53.672;10.014;2023-08-17T13:34:31;17.80;99.90
29363;DHT22;16349;53.672;10.014;2023-08-17T13:36:58;17.50;99.90
29363;DHT22;16349;53.672;10.014;2023-08-17T13:39:25;17.40;99.90
29363;DHT22;16349;53.672;10.014;2023-08-17T13:41:53;17.20;99.90
29363;DHT22;16349;53.672;10.014;2023-08-17T13:44:19;17.10;99.90
29363;DHT22;16349;53.672;10.014;2023-08-17T13:46:48;17.00;99.90
29363;DHT22;16349;53.672;10.014;2023-08-17T13:49:14;16.70;99.90
29363;DHT22;16349;53.672;10.014;2023-08-17T13:51:41;16.60;99.90
29363;DHT22;16349;53.672;10.014;2023-08-17T13:54:08;16.60;99.90
29363;DHT22;16349;53.672;10.014;2023-08-17T13:56:35;16.60;99.90
29363;DHT22;16349;53.672;10.014;2023-08-17T13:59:02;16.40;99.90
29363;DHT22;16349;53.672;10.014;2023-08-17T14:01:29;16.30;99.90
29363;DHT22;16349;53.672;10.014;2023-08-17T14:03:57;16.30;99.90
29363;DHT22;16349;53.672;10.014;2023-08-17T14:06:24;16.20;99.90
29363;DHT22;16349;53.672;10.014;2023-08-17T14:08:51;16.20;99.90
29363;DHT22;16349;53.672;10.014;2023-08-17T14:11:17;16.10;99.90
29363;DHT22;16349;53.672;10.014;2023-08-17T14:13:44;16.10;99.90
29363;DHT22;16349;53.672;10.014;2023-08-17T14:16:11;16.10;99.90
29363;DHT22;16349;53.672;10.014;2023-08-17T14:18:38;16.10;99.90
29363;DHT22;16349;53.672;10.014;2023-08-17T14:21:06;16.20;99.90
29363;DHT22;16349;53.672;10.014;2023-08-17T14:23:33;16.10;99.90
29363;DHT22;16349;53.672;10.014;2023-08-17T14:26:00;16.30;99.90
29363;DHT22;16349;53.672;10.014;2023-08-17T14:28:27;16.30;99.90
29363;DHT22;16349;53.672;10.014;2023-08-17T14:30:53;16.30;99.90
29363;DHT22;16349;53.672;10.014;2023-08-17T14:33:20;16.10;99.90
29363;DHT22;16349;53.672;10.014;2023-08-17T14:35:48;16.10;99.90
29363;DHT22;16349;53.672;10.014;2023-08-17T14:38:16;16.20;99.90
29363;DHT22;16349;53.672;10.014;2023-08-17T14:40:44;16.10;99.90
29363;DHT22;16349;53.672;10.014;2023-08-17T14:43:12;16.10;99.90
29363;DHT22;16349;53.672;10.014;2023-08-17T14:45:39;16.10;99.90
29363;DHT22;16349;53.672;10.014;2023-08-17T14:48:06;16.00;99.90
29363;DHT22;16349;53.672;10.014;2023-08-17T14:50:34;16.00;99.90
29363;DHT22;16349;53.672;10.014;2023-08-17T14:53:01;16.00;99.90
29363;DHT22;16349;53.672;10.014;2023-08-17T14:55:30;16.00;99.90
29363;DHT22;16349;53.672;10.014;2023-08-17T14:57:57;16.00;99.90
29363;DHT22;16349;53.672;10.014;2023-08-17T15:00:24;15.90;99.90
29363;DHT22;16349;53.672;10.014;2023-08-17T15:02:53;16.00;99.90
29363;DHT22;16349;53.672;10.014;2023-08-17T15:05:20;15.90;99.90
29363;DHT22;16349;53.672;10.014;2023-08-17T15:07:47;15.90;99.90
29363;DHT22;16349;53.672;10.014;2023-08-17T15:10:14;15.90;99.90
29363;DHT22;16349;53.672;10.014;2023-08-17T15:12:43;15.90;99.90
29363;DHT22;16349;53.672;10.014;2023-08-17T15:15:10;15.90;99.90
29363;DHT22;16349;53.672;10.014;2023-08-17T15:17:37;16.00;99.90
29363;DHT22;16349;53.672;10.014;2023-08-17T15:20:05;16.00;99.90